sensor_id;sensor_type;location;lat;lon;timestamp;P1;durP1;ratioP1;P2;durP2;ratioP2
55461;SDS011;41327;45.102;20.624;2024-03-23T00:54:37;40.08;;;19.48;;
55461;SDS011;41327;45.102;20.624;2024-03-23T00:57:03;38.38;;;19.67;;
55461;SDS011;41327;45.102;20.624;2024-03-23T00:59:28;37.35;;;18.20;;
55461;SDS011;41327;45.102;20.624;2024-03-23T01:01:56;39.92;;;17.98;;
55461;SDS011;41327;45.102;20.624;2024-03-23T01:04:21;36.97;;;16.73;;
55461;SDS011;41327;45.102;20.624;2024-03-23T01:06:47;35.28;;;17.45;;
55461;SDS011;41327;45.102;20.624;2024-03-23T01:09:12;38.85;;;18.02;;
55461;SDS011;41327;45.102;20.624;2024-03-23T01:11:38;31.83;;;17.17;;
55461;SDS011;41327;45.102;20.624;2024-03-23T01:14:04;38.97;;;17.02;;
55461;SDS011;41327;45.102;20.624;2024-03-23T01:16:31;36.58;;;16.92;;
55461;SDS011;41327;45.102;20.624;2024-03-23T01:18:58;34.35;;;17.00;;
55461;SDS011;41327;45.102;20.624;2024-03-23T01:21:24;30.25;;;15.32;;
55461;SDS011;41327;45.102;20.624;2024-03-23T01:23:49;36.70;;;16.08;;
55461;SDS011;41327;45.102;20.624;2024-03-23T01:26:15;30.20;;;16.10;;
55461;SDS011;41327;45.102;20.624;2024-03-23T01:28:41;31.10;;;14.63;;
55461;SDS011;41327;45.102;20.624;2024-03-23T01:31:06;26.05;;;15.40;;
55461;SDS011;41327;45.102;20.624;2024-03-23T01:33:33;23.00;;;13.05;;
55461;SDS011;41327;45.102;20.624;2024-03-23T01:35:59;31.83;;;14.50;;
55461;SDS011;41327;45.102;20.624;2024-03-23T01:38:24;23.33;;;13.75;;
55461;SDS011;41327;45.102;20.624;2024-03-23T01:40:55;29.70;;;14.52;;
55461;SDS011;41327;45.102;20.624;2024-03-23T01:43:22;29.65;;;14.77;;
55461;SDS011;41327;45.102;20.624;2024-03-23T01:45:47;25.17;;;13.90;;
55461;SDS011;41327;45.102;20.624;2024-03-23T01:48:13;26.50;;;14.60;;
55461;SDS011;41327;45.102;20.624;2024-03-23T01:50:38;26.58;;;15.35;;
55461;SDS011;41327;45.102;20.624;2024-03-23T01:53:04;34.67;;;15.60;;
55461;SDS011;41327;45.102;20.624;2024-03-23T01:55:34;34.05;;;15.05;;
55461;SDS011;41327;45.102;20.624;2024-03-23T01:57:59;29.00;;;14.60;;
55461;SDS011;41327;45.102;20.624;2024-03-23T02:00:25;27.67;;;13.80;;
55461;SDS011;41327;45.102;20.624;2024-03-23T02:02:55;32.55;;;15.52;;
55461;SDS011;41327;45.102;20.624;2024-03-23T02:05:32;34.65;;;15.52;;
55461;SDS011;41327;45.102;20.624;2024-03-23T02:07:57;35.55;;;16.17;;
55461;SDS011;41327;45.102;20.624;2024-03-23T02:10:23;33.50;;;16.10;;
55461;SDS011;41327;45.102;20.624;2024-03-23T02:12:48;37.75;;;17.67;;
55461;SDS011;41327;45.102;20.624;2024-03-23T02:15:14;31.67;;;16.33;;
55461;SDS011;41327;45.102;20.624;2024-03-23T02:17:39;37.85;;;19.73;;
55461;SDS011;41327;45.102;20.624;2024-03-23T02:20:05;35.13;;;17.40;;
55461;SDS011;41327;45.102;20.624;2024-03-23T02:22:39;35.95;;;17.52;;
55461;SDS011;41327;45.102;20.624;2024-03-23T02:25:05;33.35;;;17.52;;
55461;SDS011;41327;45.102;20.624;2024-03-23T02:27:31;36.15;;;17.77;;
55461;SDS011;41327;45.102;20.624;2024-03-23T02:29:58;35.45;;;18.85;;
55461;SDS011;41327;45.102;20.624;2024-03-23T02:32:23;44.55;;;17.77;;
55461;SDS011;41327;45.102;20.624;2024-03-23T02:34:49;32.47;;;16.98;;
55461;SDS011;41327;45.102;20.624;2024-03-23T02:37:14;38.42;;;18.85;;
55461;SDS011;41327;45.102;20.624;2024-03-23T02:39:40;39.63;;;19.48;;
55461;SDS011;41327;45.102;20.624;2024-03-23T02:42:05;47.33;;;22.40;;
55461;SDS011;41327;45.102;20.624;2024-03-23T02:44:31;42.88;;;18.88;;
55461;SDS011;41327;45.102;20.624;2024-03-23T02:46:56;42.88;;;20.95;;
55461;SDS011;41327;45.102;20.624;2024-03-23T02:49:22;44.38;;;20.08;;
55461;SDS011;41327;45.102;20.624;2024-03-23T02:51:47;46.55;;;21.63;;
55461;SDS011;41327;45.102;20.624;2024-03-23T02:54:14;45.97;;;22.17;;
55461;SDS011;41327;45.102;20.624;2024-03-23T02:56:40;43.70;;;20.45;;
55461;SDS011;41327;45.102;20.624;2024-03-23T02:59:05;38.10;;;21.05;;
55461;SDS011;41327;45.102;20.624;2024-03-23T03:01:31;40.97;;;21.58;;
55461;SDS011;41327;45.102;20.624;2024-03-23T03:03:56;44.25;;;21.90;;
55461;SDS011;41327;45.102;20.624;2024-03-23T03:06:31;42.95;;;22.38;;
55461;SDS011;41327;45.102;20.624;2024-03-23T03:08:59;40.47;;;21.52;;
55461;SDS011;41327;45.102;20.624;2024-03-23T03:11:25;46.65;;;23.00;;
55461;SDS011;41327;45.102;20.624;2024-03-23T03:14:09;39.72;;;21.30;;
55461;SDS011;41327;45.102;20.624;2024-03-23T03:16:43;40.20;;;20.45;;
55461;SDS011;41327;45.102;20.624;2024-03-23T03:19:09;38.72;;;20.70;;
55461;SDS011;41327;45.102;20.624;2024-03-23T03:21:36;42.13;;;22.27;;
55461;SDS011;41327;45.102;20.624;2024-03-23T03:24:02;38.42;;;20.08;;
55461;SDS011;41327;45.102;20.624;2024-03-23T03:26:28;40.53;;;20.55;;
55461;SDS011;41327;45.102;20.624;2024-03-23T03:28:54;42.78;;;20.05;;
55461;SDS011;41327;45.102;20.624;2024-03-23T03:31:20;39.10;;;20.33;;
55461;SDS011;41327;45.102;20.624;2024-03-23T03:33:46;35.80;;;19.63;;
55461;SDS011;41327;45.102;20.624;2024-03-23T03:36:11;38.55;;;20.63;;
55461;SDS011;41327;45.102;20.624;2024-03-23T03:38:37;38.90;;;19.20;;
55461;SDS011;41327;45.102;20.624;2024-03-23T03:41:03;39.83;;;17.85;;
55461;SDS011;41327;45.102;20.624;2024-03-23T03:43:29;39.15;;;18.33;;
55461;SDS011;41327;45.102;20.624;2024-03-23T03:45:55;41.20;;;19.85;;
55461;SDS011;41327;45.102;20.624;2024-03-23T03:48:22;33.00;;;18.10;;
55461;SDS011;41327;45.102;20.624;2024-03-23T03:50:47;42.88;;;18.98;;
55461;SDS011;41327;45.102;20.624;2024-03-23T03:53:13;38.42;;;19.00;;
55461;SDS011;41327;45.102;20.624;2024-03-23T03:55:39;37.03;;;18.38;;
55461;SDS011;41327;45.102;20.624;2024-03-23T03:58:04;39.50;;;18.70;;
55461;SDS011;41327;45.102;20.624;2024-03-23T04:00:30;33.72;;;17.02;;
55461;SDS011;41327;45.102;20.624;2024-03-23T04:02:56;39.47;;;18.40;;
55461;SDS011;41327;45.102;20.624;2024-03-23T04:05:22;40.53;;;17.83;;
55461;SDS011;41327;45.102;20.624;2024-03-23T04:07:47;36.88;;;18.20;;
55461;SDS011;41327;45.102;20.624;2024-03-23T04:10:13;37.17;;;18.70;;
55461;SDS011;41327;45.102;20.624;2024-03-23T04:12:40;32.65;;;17.27;;
55461;SDS011;41327;45.102;20.624;2024-03-23T04:15:06;36.72;;;17.60;;
55461;SDS011;41327;45.102;20.624;2024-03-23T04:17:32;36.50;;;17.85;;
55461;SDS011;41327;45.102;20.624;2024-03-23T04:19:59;38.95;;;18.10;;
55461;SDS011;41327;45.102;20.624;2024-03-23T04:22:26;33.50;;;17.20;;
55461;SDS011;41327;45.102;20.624;2024-03-23T04:24:55;32.58;;;17.52;;
55461;SDS011;41327;45.102;20.624;2024-03-23T04:27:22;31.50;;;16.88;;
55461;SDS011;41327;45.102;20.624;2024-03-23T04:29:48;32.72;;;17.42;;
55461;SDS011;41327;45.102;20.624;2024-03-23T04:32:15;37.05;;;17.77;;
55461;SDS011;41327;45.102;20.624;2024-03-23T04:34:41;34.50;;;17.30;;
55461;SDS011;41327;45.102;20.624;2024-03-23T04:37:07;30.35;;;16.63;;
55461;SDS011;41327;45.102;20.624;2024-03-23T04:39:33;36.72;;;16.98;;
55461;SDS011;41327;45.102;20.624;2024-03-23T04:42:02;30.67;;;17.52;;
55461;SDS011;41327;45.102;20.624;2024-03-23T04:44:28;30.33;;;17.05;;
55461;SDS011;41327;45.102;20.624;2024-03-23T04:46:54;33.03;;;17.27;;
55461;SDS011;41327;45.102;20.624;2024-03-23T04:49:19;30.80;;;15.55;;
55461;SDS011;41327;45.102;20.624;2024-03-23T04:51:45;31.05;;;17.10;;
55461;SDS011;41327;45.102;20.624;2024-03-23T04:54:14;32.25;;;15.90;;
55461;SDS011;41327;45.102;20.624;2024-03-23T04:56:40;29.67;;;15.48;;
55461;SDS011;41327;45.102;20.624;2024-03-23T04:59:07;25.80;;;15.38;;
55461;SDS011;41327;45.102;20.624;2024-03-23T05:01:36;25.88;;;14.20;;
55461;SDS011;41327;45.102;20.624;2024-03-23T05:04:03;34.95;;;16.20;;
55461;SDS011;41327;45.102;20.624;2024-03-23T05:06:29;29.48;;;15.32;;
55461;SDS011;41327;45.102;20.624;2024-03-23T05:08:54;29.35;;;15.25;;
55461;SDS011;41327;45.102;20.624;2024-03-23T05:11:20;28.17;;;14.85;;
55461;SDS011;41327;45.102;20.624;2024-03-23T05:13:46;25.67;;;14.93;;
55461;SDS011;41327;45.102;20.624;2024-03-23T05:16:11;28.33;;;14.80;;
55461;SDS011;41327;45.102;20.624;2024-03-23T05:18:37;27.15;;;14.65;;
55461;SDS011;41327;45.102;20.624;2024-03-23T05:21:02;28.63;;;15.50;;
55461;SDS011;41327;45.102;20.624;2024-03-23T05:23:28;25.77;;;15.55;;
55461;SDS011;41327;45.102;20.624;2024-03-23T05:25:54;29.25;;;16.73;;
55461;SDS011;41327;45.102;20.624;2024-03-23T05:28:20;38.83;;;18.42;;
55461;SDS011;41327;45.102;20.624;2024-03-23T05:30:50;38.03;;;17.17;;
55461;SDS011;41327;45.102;20.624;2024-03-23T05:33:17;43.95;;;18.42;;
55461;SDS011;41327;45.102;20.624;2024-03-23T05:35:44;42.42;;;19.73;;
55461;SDS011;41327;45.102;20.624;2024-03-23T05:38:09;42.72;;;19.77;;
55461;SDS011;41327;45.102;20.624;2024-03-23T05:40:35;38.05;;;17.80;;
55461;SDS011;41327;45.102;20.624;2024-03-23T05:43:02;39.72;;;18.95;;
55461;SDS011;41327;45.102;20.624;2024-03-23T05:45:29;45.22;;;19.20;;
55461;SDS011;41327;45.102;20.624;2024-03-23T05:47:54;35.25;;;17.63;;
55461;SDS011;41327;45.102;20.624;2024-03-23T05:50:22;28.70;;;15.50;;
55461;SDS011;41327;45.102;20.624;2024-03-23T05:52:48;25.70;;;14.23;;
55461;SDS011;41327;45.102;20.624;2024-03-23T05:55:14;28.08;;;13.93;;
55461;SDS011;41327;45.102;20.624;2024-03-23T05:57:40;26.67;;;13.27;;
55461;SDS011;41327;45.102;20.624;2024-03-23T06:00:05;28.33;;;14.73;;
55461;SDS011;41327;45.102;20.624;2024-03-23T06:02:35;24.40;;;13.15;;
55461;SDS011;41327;45.102;20.624;2024-03-23T06:05:01;25.77;;;11.90;;
55461;SDS011;41327;45.102;20.624;2024-03-23T06:07:27;28.05;;;11.80;;
55461;SDS011;41327;45.102;20.624;2024-03-23T06:09:52;19.25;;;11.02;;
55461;SDS011;41327;45.102;20.624;2024-03-23T06:12:18;22.88;;;11.90;;
55461;SDS011;41327;45.102;20.624;2024-03-23T06:14:43;30.08;;;12.82;;
55461;SDS011;41327;45.102;20.624;2024-03-23T06:17:09;23.90;;;12.57;;
55461;SDS011;41327;45.102;20.624;2024-03-23T06:19:37;25.83;;;11.73;;
55461;SDS011;41327;45.102;20.624;2024-03-23T06:22:02;27.80;;;12.80;;
55461;SDS011;41327;45.102;20.624;2024-03-23T06:24:28;18.75;;;11.40;;
55461;SDS011;41327;45.102;20.624;2024-03-23T06:26:53;20.38;;;11.57;;
55461;SDS011;41327;45.102;20.624;2024-03-23T06:29:19;19.35;;;10.80;;
55461;SDS011;41327;45.102;20.624;2024-03-23T06:31:51;20.55;;;10.77;;
55461;SDS011;41327;45.102;20.624;2024-03-23T06:34:18;26.08;;;9.88;;
55461;SDS011;41327;45.102;20.624;2024-03-23T06:36:43;18.63;;;9.68;;
55461;SDS011;41327;45.102;20.624;2024-03-23T06:39:09;20.98;;;10.18;;
55461;SDS011;41327;45.102;20.624;2024-03-23T06:41:37;21.88;;;10.88;;
55461;SDS011;41327;45.102;20.624;2024-03-23T06:44:03;19.60;;;9.23;;
55461;SDS011;41327;45.102;20.624;2024-03-23T06:46:29;18.38;;;10.50;;
55461;SDS011;41327;45.102;20.624;2024-03-23T06:48:55;18.20;;;9.65;;
55461;SDS011;41327;45.102;20.624;2024-03-23T06:51:22;19.38;;;10.50;;
55461;SDS011;41327;45.102;20.624;2024-03-23T06:53:49;18.48;;;10.68;;
55461;SDS011;41327;45.102;20.624;2024-03-23T06:56:15;21.08;;;10.68;;
55461;SDS011;41327;45.102;20.624;2024-03-23T06:58:40;18.02;;;9.73;;
55461;SDS011;41327;45.102;20.624;2024-03-23T07:01:06;18.02;;;8.77;;
55461;SDS011;41327;45.102;20.624;2024-03-23T07:03:32;20.33;;;9.35;;
55461;SDS011;41327;45.102;20.624;2024-03-23T07:05:58;15.10;;;8.73;;
55461;SDS011;41327;45.102;20.624;2024-03-23T07:08:24;17.15;;;9.57;;
55461;SDS011;41327;45.102;20.624;2024-03-23T07:10:49;20.00;;;9.85;;
55461;SDS011;41327;45.102;20.624;2024-03-23T07:13:15;19.90;;;10.30;;
55461;SDS011;41327;45.102;20.624;2024-03-23T07:15:42;17.88;;;9.95;;
55461;SDS011;41327;45.102;20.624;2024-03-23T07:18:07;14.48;;;8.57;;
55461;SDS011;41327;45.102;20.624;2024-03-23T07:20:33;22.17;;;9.32;;
55461;SDS011;41327;45.102;20.624;2024-03-23T07:22:59;15.35;;;8.60;;
55461;SDS011;41327;45.102;20.624;2024-03-23T07:25:24;17.38;;;8.65;;
55461;SDS011;41327;45.102;20.624;2024-03-23T07:27:53;17.67;;;9.15;;
55461;SDS011;41327;45.102;20.624;2024-03-23T07:30:18;15.95;;;8.75;;
55461;SDS011;41327;45.102;20.624;2024-03-23T07:32:44;20.30;;;8.40;;
55461;SDS011;41327;45.102;20.624;2024-03-23T07:35:10;17.63;;;9.18;;
55461;SDS011;41327;45.102;20.624;2024-03-23T07:37:35;14.93;;;7.93;;
55461;SDS011;41327;45.102;20.624;2024-03-23T07:40:01;17.60;;;8.95;;
55461;SDS011;41327;45.102;20.624;2024-03-23T07:42:26;19.25;;;9.02;;
55461;SDS011;41327;45.102;20.624;2024-03-23T07:44:53;17.95;;;8.73;;
55461;SDS011;41327;45.102;20.624;2024-03-23T07:47:20;16.90;;;8.77;;
55461;SDS011;41327;45.102;20.624;2024-03-23T07:49:46;15.25;;;8.70;;
55461;SDS011;41327;45.102;20.624;2024-03-23T07:52:12;13.95;;;8.07;;
55461;SDS011;41327;45.102;20.624;2024-03-23T07:54:38;17.35;;;7.88;;
55461;SDS011;41327;45.102;20.624;2024-03-23T07:57:03;15.43;;;7.82;;
55461;SDS011;41327;45.102;20.624;2024-03-23T07:59:29;14.82;;;8.98;;
55461;SDS011;41327;45.102;20.624;2024-03-23T08:01:56;14.25;;;6.90;;
55461;SDS011;41327;45.102;20.624;2024-03-23T08:04:22;13.77;;;7.28;;
55461;SDS011;41327;45.102;20.624;2024-03-23T08:06:49;13.63;;;5.95;;
55461;SDS011;41327;45.102;20.624;2024-03-23T08:09:20;16.15;;;8.18;;
55461;SDS011;41327;45.102;20.624;2024-03-23T08:11:46;13.02;;;7.15;;
55461;SDS011;41327;45.102;20.624;2024-03-23T08:14:12;15.15;;;7.45;;
55461;SDS011;41327;45.102;20.624;2024-03-23T08:16:38;11.00;;;6.40;;
55461;SDS011;41327;45.102;20.624;2024-03-23T08:19:04;15.23;;;7.97;;
55461;SDS011;41327;45.102;20.624;2024-03-23T08:21:34;15.55;;;7.18;;
55461;SDS011;41327;45.102;20.624;2024-03-23T08:24:00;12.02;;;7.43;;
55461;SDS011;41327;45.102;20.624;2024-03-23T08:26:25;12.50;;;7.28;;
55461;SDS011;41327;45.102;20.624;2024-03-23T08:28:52;14.20;;;6.88;;
55461;SDS011;41327;45.102;20.624;2024-03-23T08:31:18;13.23;;;6.85;;
55461;SDS011;41327;45.102;20.624;2024-03-23T08:33:44;15.05;;;7.60;;
55461;SDS011;41327;45.102;20.624;2024-03-23T08:36:10;10.90;;;6.22;;
55461;SDS011;41327;45.102;20.624;2024-03-23T08:38:39;14.65;;;6.65;;
55461;SDS011;41327;45.102;20.624;2024-03-23T08:41:05;16.15;;;6.97;;
55461;SDS011;41327;45.102;20.624;2024-03-23T08:43:37;18.73;;;7.28;;
55461;SDS011;41327;45.102;20.624;2024-03-23T08:46:10;10.98;;;6.55;;
55461;SDS011;41327;45.102;20.624;2024-03-23T08:48:37;11.40;;;6.85;;
55461;SDS011;41327;45.102;20.624;2024-03-23T08:51:13;11.30;;;6.72;;
55461;SDS011;41327;45.102;20.624;2024-03-23T08:53:39;11.77;;;6.88;;
55461;SDS011;41327;45.102;20.624;2024-03-23T08:56:05;17.55;;;7.07;;
55461;SDS011;41327;45.102;20.624;2024-03-23T08:58:32;13.88;;;7.68;;
55461;SDS011;41327;45.102;20.624;2024-03-23T09:01:08;14.60;;;7.30;;
55461;SDS011;41327;45.102;20.624;2024-03-23T09:03:40;12.13;;;6.80;;
55461;SDS011;41327;45.102;20.624;2024-03-23T09:06:07;13.38;;;7.57;;
55461;SDS011;41327;45.102;20.624;2024-03-23T09:08:33;11.35;;;6.65;;
55461;SDS011;41327;45.102;20.624;2024-03-23T09:11:04;16.27;;;8.35;;
55461;SDS011;41327;45.102;20.624;2024-03-23T09:13:36;13.52;;;6.90;;
55461;SDS011;41327;45.102;20.624;2024-03-23T09:16:03;14.05;;;7.15;;
55461;SDS011;41327;45.102;20.624;2024-03-23T09:18:33;12.27;;;6.97;;
55461;SDS011;41327;45.102;20.624;2024-03-23T09:21:00;17.05;;;6.72;;
55461;SDS011;41327;45.102;20.624;2024-03-23T09:23:26;11.73;;;6.20;;
55461;SDS011;41327;45.102;20.624;2024-03-23T09:25:51;10.18;;;5.72;;
55461;SDS011;41327;45.102;20.624;2024-03-23T09:28:17;12.07;;;6.80;;
55461;SDS011;41327;45.102;20.624;2024-03-23T09:30:42;13.82;;;6.78;;
55461;SDS011;41327;45.102;20.624;2024-03-23T09:33:11;11.52;;;6.82;;
55461;SDS011;41327;45.102;20.624;2024-03-23T09:35:38;13.10;;;6.80;;
55461;SDS011;41327;45.102;20.624;2024-03-23T09:38:04;9.93;;;5.63;;
55461;SDS011;41327;45.102;20.624;2024-03-23T09:40:30;12.13;;;6.25;;
55461;SDS011;41327;45.102;20.624;2024-03-23T09:42:55;13.60;;;6.63;;
55461;SDS011;41327;45.102;20.624;2024-03-23T09:45:21;11.88;;;5.57;;
55461;SDS011;41327;45.102;20.624;2024-03-23T09:47:49;16.02;;;6.93;;
55461;SDS011;41327;45.102;20.624;2024-03-23T09:50:16;12.75;;;7.05;;
55461;SDS011;41327;45.102;20.624;2024-03-23T09:52:42;11.43;;;6.28;;
55461;SDS011;41327;45.102;20.624;2024-03-23T09:55:10;13.30;;;6.57;;
55461;SDS011;41327;45.102;20.624;2024-03-23T09:57:36;15.27;;;6.60;;
55461;SDS011;41327;45.102;20.624;2024-03-23T10:00:02;8.82;;;5.90;;
55461;SDS011;41327;45.102;20.624;2024-03-23T10:02:28;10.43;;;5.32;;
55461;SDS011;41327;45.102;20.624;2024-03-23T10:04:54;9.20;;;5.85;;
55461;SDS011;41327;45.102;20.624;2024-03-23T10:07:19;14.65;;;6.28;;
55461;SDS011;41327;45.102;20.624;2024-03-23T10:09:46;12.45;;;5.47;;
55461;SDS011;41327;45.102;20.624;2024-03-23T10:12:18;9.63;;;5.60;;
55461;SDS011;41327;45.102;20.624;2024-03-23T10:14:44;8.32;;;5.53;;
55461;SDS011;41327;45.102;20.624;2024-03-23T10:19:43;8.23;;;4.43;;
55461;SDS011;41327;45.102;20.624;2024-03-23T10:22:12;12.48;;;5.72;;
55461;SDS011;41327;45.102;20.624;2024-03-23T10:24:38;8.73;;;5.35;;
55461;SDS011;41327;45.102;20.624;2024-03-23T10:27:04;8.88;;;5.32;;
55461;SDS011;41327;45.102;20.624;2024-03-23T10:29:30;7.53;;;3.88;;
55461;SDS011;41327;45.102;20.624;2024-03-23T10:32:07;7.35;;;4.78;;
55461;SDS011;41327;45.102;20.624;2024-03-23T10:34:35;9.43;;;4.88;;
55461;SDS011;41327;45.102;20.624;2024-03-23T10:37:02;9.65;;;4.70;;
55461;SDS011;41327;45.102;20.624;2024-03-23T10:39:32;6.85;;;4.85;;
55461;SDS011;41327;45.102;20.624;2024-03-23T10:42:00;7.07;;;4.40;;
55461;SDS011;41327;45.102;20.624;2024-03-23T10:44:27;11.15;;;4.95;;
55461;SDS011;41327;45.102;20.624;2024-03-23T10:46:55;9.93;;;3.97;;
55461;SDS011;41327;45.102;20.624;2024-03-23T10:49:34;6.88;;;3.72;;
55461;SDS011;41327;45.102;20.624;2024-03-23T10:52:00;7.65;;;4.38;;
55461;SDS011;41327;45.102;20.624;2024-03-23T10:54:27;8.65;;;4.82;;
55461;SDS011;41327;45.102;20.624;2024-03-23T10:57:16;8.77;;;4.30;;
55461;SDS011;41327;45.102;20.624;2024-03-23T10:59:41;9.80;;;4.47;;
55461;SDS011;41327;45.102;20.624;2024-03-23T11:02:07;10.50;;;4.97;;
55461;SDS011;41327;45.102;20.624;2024-03-23T11:04:44;6.70;;;3.95;;
55461;SDS011;41327;45.102;20.624;2024-03-23T11:09:49;5.40;;;4.10;;
55461;SDS011;41327;45.102;20.624;2024-03-23T11:14:52;9.68;;;4.28;;
55461;SDS011;41327;45.102;20.624;2024-03-23T11:17:20;7.68;;;4.03;;
55461;SDS011;41327;45.102;20.624;2024-03-23T11:19:56;9.05;;;4.70;;
55461;SDS011;41327;45.102;20.624;2024-03-23T11:22:37;8.48;;;4.28;;
55461;SDS011;41327;45.102;20.624;2024-03-23T11:27:42;7.18;;;4.22;;
55461;SDS011;41327;45.102;20.624;2024-03-23T11:30:10;9.00;;;4.57;;
55461;SDS011;41327;45.102;20.624;2024-03-23T11:32:47;8.07;;;4.05;;
55461;SDS011;41327;45.102;20.624;2024-03-23T11:35:26;5.35;;;3.75;;
55461;SDS011;41327;45.102;20.624;2024-03-23T11:40:31;6.97;;;4.32;;
55461;SDS011;41327;45.102;20.624;2024-03-23T11:43:01;5.72;;;3.25;;
55461;SDS011;41327;45.102;20.624;2024-03-23T11:45:28;5.00;;;3.45;;
55461;SDS011;41327;45.102;20.624;2024-03-23T11:48:10;6.80;;;2.92;;
55461;SDS011;41327;45.102;20.624;2024-03-23T11:50:37;3.83;;;1.98;;
55461;SDS011;41327;45.102;20.624;2024-03-23T11:53:06;2.85;;;2.22;;
55461;SDS011;41327;45.102;20.624;2024-03-23T11:55:54;3.53;;;2.00;;
55461;SDS011;41327;45.102;20.624;2024-03-23T11:58:21;2.95;;;1.90;;
55461;SDS011;41327;45.102;20.624;2024-03-23T12:01:00;2.30;;;1.80;;
55461;SDS011;41327;45.102;20.624;2024-03-23T12:03:28;2.17;;;1.63;;
55461;SDS011;41327;45.102;20.624;2024-03-23T12:05:54;2.90;;;1.65;;
55461;SDS011;41327;45.102;20.624;2024-03-23T12:08:23;3.78;;;1.50;;
55461;SDS011;41327;45.102;20.624;2024-03-23T12:10:53;1.77;;;1.38;;
55461;SDS011;41327;45.102;20.624;2024-03-23T12:13:31;5.32;;;1.83;;
55461;SDS011;41327;45.102;20.624;2024-03-23T12:16:08;3.80;;;1.90;;
55461;SDS011;41327;45.102;20.624;2024-03-23T12:18:35;2.55;;;1.40;;
55461;SDS011;41327;45.102;20.624;2024-03-23T12:21:00;2.08;;;1.67;;
55461;SDS011;41327;45.102;20.624;2024-03-23T12:23:26;3.20;;;1.80;;
55461;SDS011;41327;45.102;20.624;2024-03-23T12:25:51;3.38;;;1.63;;
55461;SDS011;41327;45.102;20.624;2024-03-23T12:28:17;2.25;;;1.70;;
55461;SDS011;41327;45.102;20.624;2024-03-23T12:30:42;2.95;;;1.48;;
55461;SDS011;41327;45.102;20.624;2024-03-23T12:33:08;2.83;;;2.00;;
55461;SDS011;41327;45.102;20.624;2024-03-23T12:35:33;3.10;;;1.85;;
55461;SDS011;41327;45.102;20.624;2024-03-23T12:37:59;2.97;;;1.95;;
55461;SDS011;41327;45.102;20.624;2024-03-23T12:40:25;4.70;;;1.80;;
55461;SDS011;41327;45.102;20.624;2024-03-23T12:42:51;4.63;;;1.38;;
55461;SDS011;41327;45.102;20.624;2024-03-23T12:45:17;3.67;;;1.75;;
55461;SDS011;41327;45.102;20.624;2024-03-23T12:47:42;5.57;;;2.10;;
55461;SDS011;41327;45.102;20.624;2024-03-23T12:50:08;4.22;;;1.98;;
55461;SDS011;41327;45.102;20.624;2024-03-23T12:52:35;4.28;;;1.95;;
55461;SDS011;41327;45.102;20.624;2024-03-23T12:55:01;3.08;;;2.03;;
55461;SDS011;41327;45.102;20.624;2024-03-23T12:57:26;4.38;;;2.10;;
55461;SDS011;41327;45.102;20.624;2024-03-23T12:59:52;5.43;;;2.13;;
55461;SDS011;41327;45.102;20.624;2024-03-23T13:02:19;2.92;;;1.80;;
55461;SDS011;41327;45.102;20.624;2024-03-23T13:04:45;2.47;;;1.95;;
55461;SDS011;41327;45.102;20.624;2024-03-23T13:07:17;6.43;;;2.10;;
55461;SDS011;41327;45.102;20.624;2024-03-23T13:09:43;2.40;;;2.05;;
55461;SDS011;41327;45.102;20.624;2024-03-23T13:12:09;3.53;;;2.28;;
55461;SDS011;41327;45.102;20.624;2024-03-23T13:14:37;2.70;;;2.00;;
55461;SDS011;41327;45.102;20.624;2024-03-23T13:17:06;4.85;;;2.50;;
55461;SDS011;41327;45.102;20.624;2024-03-23T13:19:32;3.05;;;2.00;;
55461;SDS011;41327;45.102;20.624;2024-03-23T13:21:58;3.47;;;2.38;;
55461;SDS011;41327;45.102;20.624;2024-03-23T13:24:25;5.50;;;2.25;;
55461;SDS011;41327;45.102;20.624;2024-03-23T13:26:51;4.65;;;2.65;;
55461;SDS011;41327;45.102;20.624;2024-03-23T13:29:17;6.65;;;2.13;;
55461;SDS011;41327;45.102;20.624;2024-03-23T13:31:47;4.88;;;2.60;;
55461;SDS011;41327;45.102;20.624;2024-03-23T13:34:13;2.95;;;2.58;;
55461;SDS011;41327;45.102;20.624;2024-03-23T13:36:44;5.03;;;2.70;;
55461;SDS011;41327;45.102;20.624;2024-03-23T13:39:10;4.82;;;2.80;;
55461;SDS011;41327;45.102;20.624;2024-03-23T13:41:37;3.97;;;2.42;;
55461;SDS011;41327;45.102;20.624;2024-03-23T13:44:10;6.07;;;2.55;;
55461;SDS011;41327;45.102;20.624;2024-03-23T13:46:40;3.95;;;2.53;;
55461;SDS011;41327;45.102;20.624;2024-03-23T13:49:08;3.65;;;2.58;;
55461;SDS011;41327;45.102;20.624;2024-03-23T13:51:46;4.80;;;2.67;;
55461;SDS011;41327;45.102;20.624;2024-03-23T13:54:11;4.10;;;2.33;;
55461;SDS011;41327;45.102;20.624;2024-03-23T13:56:37;3.80;;;2.42;;
55461;SDS011;41327;45.102;20.624;2024-03-23T13:59:02;3.92;;;2.92;;
55461;SDS011;41327;45.102;20.624;2024-03-23T14:01:28;2.83;;;2.40;;
55461;SDS011;41327;45.102;20.624;2024-03-23T14:03:53;2.55;;;1.95;;
55461;SDS011;41327;45.102;20.624;2024-03-23T14:06:20;3.00;;;2.22;;
55461;SDS011;41327;45.102;20.624;2024-03-23T14:08:46;3.75;;;2.58;;
55461;SDS011;41327;45.102;20.624;2024-03-23T14:11:11;6.18;;;2.63;;
55461;SDS011;41327;45.102;20.624;2024-03-23T14:13:37;4.70;;;2.20;;
55461;SDS011;41327;45.102;20.624;2024-03-23T14:16:03;3.15;;;2.30;;
55461;SDS011;41327;45.102;20.624;2024-03-23T14:18:29;3.90;;;2.47;;
55461;SDS011;41327;45.102;20.624;2024-03-23T14:20:58;3.92;;;2.10;;
55461;SDS011;41327;45.102;20.624;2024-03-23T14:23:25;3.83;;;2.55;;
55461;SDS011;41327;45.102;20.624;2024-03-23T14:25:58;3.03;;;2.50;;
55461;SDS011;41327;45.102;20.624;2024-03-23T14:28:24;2.58;;;2.38;;
55461;SDS011;41327;45.102;20.624;2024-03-23T14:30:49;3.13;;;2.20;;
55461;SDS011;41327;45.102;20.624;2024-03-23T14:33:16;3.45;;;2.47;;
55461;SDS011;41327;45.102;20.624;2024-03-23T14:35:43;2.72;;;2.38;;
55461;SDS011;41327;45.102;20.624;2024-03-23T14:38:09;3.90;;;2.17;;
55461;SDS011;41327;45.102;20.624;2024-03-23T14:40:34;3.95;;;3.08;;
55461;SDS011;41327;45.102;20.624;2024-03-23T14:43:00;3.80;;;2.63;;
55461;SDS011;41327;45.102;20.624;2024-03-23T14:45:26;4.38;;;3.42;;
55461;SDS011;41327;45.102;20.624;2024-03-23T14:47:51;4.07;;;3.03;;
55461;SDS011;41327;45.102;20.624;2024-03-23T14:50:17;4.25;;;2.60;;
55461;SDS011;41327;45.102;20.624;2024-03-23T14:52:46;5.70;;;2.70;;
55461;SDS011;41327;45.102;20.624;2024-03-23T14:55:12;4.28;;;2.35;;
55461;SDS011;41327;45.102;20.624;2024-03-23T14:57:38;3.20;;;2.38;;
55461;SDS011;41327;45.102;20.624;2024-03-23T15:00:09;4.82;;;3.38;;
55461;SDS011;41327;45.102;20.624;2024-03-23T15:02:36;4.18;;;2.72;;
55461;SDS011;41327;45.102;20.624;2024-03-23T15:05:02;19.23;;;12.23;;
55461;SDS011;41327;45.102;20.624;2024-03-23T15:07:30;9.63;;;6.57;;
55461;SDS011;41327;45.102;20.624;2024-03-23T15:09:56;6.43;;;4.45;;
55461;SDS011;41327;45.102;20.624;2024-03-23T15:12:21;6.13;;;3.28;;
55461;SDS011;41327;45.102;20.624;2024-03-23T15:14:47;7.30;;;3.67;;
55461;SDS011;41327;45.102;20.624;2024-03-23T15:17:13;4.68;;;2.38;;
55461;SDS011;41327;45.102;20.624;2024-03-23T15:19:38;8.75;;;4.05;;
55461;SDS011;41327;45.102;20.624;2024-03-23T15:22:04;7.30;;;3.60;;
55461;SDS011;41327;45.102;20.624;2024-03-23T15:24:29;6.38;;;2.90;;
55461;SDS011;41327;45.102;20.624;2024-03-23T15:26:56;7.90;;;3.25;;